Time;durP1;ratioP1;P1;durP2;ratioP2;P2;SDS_P1;SDS_P2;PMS_P1;PMS_P2;Temp;Humidity;BMP_temperature;BMP_pressure;BME280_temperature;BME280_humidity;BME280_pressure;Samples;Min_cycle;Max_cycle;Signal;HPM_P1;HPM_P2
2024/03/30 00:00:26;;;;;;;2.92;1.48;;;;;;;;;;2080827;28;20456;-49
2024/03/30 00:01:27;;;;;;;3.70;1.80;;;;;;;;;;2088103;28;20112;-50
2024/03/30 00:02:28;;;;;;;2.40;1.80;;;;;;;;;;2089064;28;20024;-51
2024/03/30 00:03:30;;;;;;;3.40;2.08;;;;;;;;;;2088654;28;20021;-48
2024/03/30 00:04:31;;;;;;;4.93;2.25;;;;;;;;;;2088534;28;20581;-50
2024/03/30 00:05:32;;;;;;;3.90;1.85;;;;;;;;;;2088790;28;20475;-48
2024/03/30 00:06:34;;;;;;;3.17;1.90;;;;;;;;;;2088599;28;20057;-47
2024/03/30 00:07:40;;;;;;;2.45;1.95;;;;;;;;;;2087716;28;20061;-49
2024/03/30 00:08:42;;;;;;;4.22;2.00;;;;;;;;;;2084867;28;20389;-49
2024/03/30 00:09:43;;;;;;;2.72;1.70;;;;;;;;;;2088998;28;20136;-49
2024/03/30 00:10:44;;;;;;;3.35;1.67;;;;;;;;;;2088452;28;20024;-49
2024/03/30 00:11:46;;;;;;;3.28;1.50;;;;;;;;;;2088662;28;20040;-49
2024/03/30 00:12:49;;;;;;;2.38;1.73;;;;;;;;;;2088921;28;20033;-49
2024/03/30 00:13:50;;;;;;;2.58;1.40;;;;;;;;;;2088711;28;20036;-48
2024/03/30 00:14:52;;;;;;;1.90;1.40;;;;;;;;;;2088811;28;20092;-49
2024/03/30 00:15:53;;;;;;;2.22;1.20;;;;;;;;;;2088035;28;20503;-49
2024/03/30 00:16:55;;;;;;;2.15;1.35;;;;;;;;;;2087771;28;20032;-49
2024/03/30 00:17:56;;;;;;;2.45;1.40;;;;;;;;;;2088560;28;20114;-49
2024/03/30 00:18:59;;;;;;;3.17;1.30;;;;;;;;;;2088775;28;20569;-50
2024/03/30 00:20:00;;;;;;;5.00;1.70;;;;;;;;;;2088820;28;20049;-49
2024/03/30 00:21:05;;;;;;;3.28;1.30;;;;;;;;;;2088474;28;20037;-49
2024/03/30 00:22:06;;;;;;;1.98;1.40;;;;;;;;;;2088231;28;20029;-48
2024/03/30 00:23:08;;;;;;;3.78;1.65;;;;;;;;;;2088801;28;20115;-48
2024/03/30 00:24:09;;;;;;;2.13;1.33;;;;;;;;;;2088963;28;20035;-49
2024/03/30 00:25:10;;;;;;;2.10;1.50;;;;;;;;;;2089014;28;20021;-48
2024/03/30 00:26:12;;;;;;;3.60;1.70;;;;;;;;;;2089028;28;20032;-49
2024/03/30 00:27:13;;;;;;;2.58;1.40;;;;;;;;;;2088838;28;20013;-49
2024/03/30 00:28:15;;;;;;;3.85;1.58;;;;;;;;;;2077379;28;20025;-51
2024/03/30 00:29:16;;;;;;;3.75;2.10;;;;;;;;;;2071958;28;20022;-54
2024/03/30 00:30:19;;;;;;;3.88;1.50;;;;;;;;;;2088515;28;20059;-51
2024/03/30 00:31:25;;;;;;;2.33;1.58;;;;;;;;;;2088121;28;20096;-49
2024/03/30 00:32:26;;;;;;;2.63;1.48;;;;;;;;;;2079051;28;20112;-49
2024/03/30 00:33:27;;;;;;;1.90;1.50;;;;;;;;;;2087740;28;20557;-53
2024/03/30 00:34:29;;;;;;;2.45;1.50;;;;;;;;;;2088724;28;20480;-48
2024/03/30 00:35:30;;;;;;;3.72;1.85;;;;;;;;;;2089017;28;20047;-48
2024/03/30 00:36:31;;;;;;;3.08;1.67;;;;;;;;;;2088846;28;20533;-48
2024/03/30 00:37:34;;;;;;;3.92;1.95;;;;;;;;;;2089040;28;20128;-48
2024/03/30 00:38:37;;;;;;;2.72;1.73;;;;;;;;;;2088945;28;20012;-50
2024/03/30 00:39:39;;;;;;;3.03;1.30;;;;;;;;;;2088057;28;20033;-49
2024/03/30 00:40:41;;;;;;;7.05;2.10;;;;;;;;;;2088261;28;20020;-48
2024/03/30 00:41:42;;;;;;;2.58;1.58;;;;;;;;;;2088776;28;20025;-47
2024/03/30 00:42:43;;;;;;;3.67;1.58;;;;;;;;;;2088827;28;20100;-48
2024/03/30 00:43:45;;;;;;;3.67;1.80;;;;;;;;;;2088770;28;20033;-49
2024/03/30 00:44:47;;;;;;;2.85;1.50;;;;;;;;;;2088710;28;20044;-49
2024/03/30 00:45:48;;;;;;;2.53;1.50;;;;;;;;;;2088690;28;20419;-49
2024/03/30 00:46:49;;;;;;;4.53;1.90;;;;;;;;;;2088938;28;20032;-48
2024/03/30 00:47:51;;;;;;;3.90;1.65;;;;;;;;;;2085728;28;20017;-49
2024/03/30 00:48:52;;;;;;;5.00;1.80;;;;;;;;;;2084616;28;20037;-49
2024/03/30 00:49:53;;;;;;;3.95;1.77;;;;;;;;;;2087796;28;20104;-48
2024/03/30 00:50:54;;;;;;;2.33;1.40;;;;;;;;;;2091893;28;20014;-49
2024/03/30 00:51:56;;;;;;;1.98;1.33;;;;;;;;;;2088627;28;20068;-50
2024/03/30 00:52:57;;;;;;;1.67;1.27;;;;;;;;;;2088050;28;20028;-48
2024/03/30 00:53:58;;;;;;;2.97;1.70;;;;;;;;;;2088268;28;20013;-48
2024/03/30 00:55:00;;;;;;;2.75;1.60;;;;;;;;;;2084319;28;20024;-48
2024/03/30 00:56:01;;;;;;;3.55;1.80;;;;;;;;;;2084684;28;20025;-50
2024/03/30 00:57:02;;;;;;;2.75;1.27;;;;;;;;;;2084783;28;20017;-50
2024/03/30 00:58:04;;;;;;;3.72;1.48;;;;;;;;;;2088276;28;20029;-49
2024/03/30 00:59:06;;;;;;;3.42;1.55;;;;;;;;;;2088703;28;20025;-49
2024/03/30 01:00:07;;;;;;;3.17;1.27;;;;;;;;;;2089038;28;20482;-50
2024/03/30 01:01:09;;;;;;;3.92;1.30;;;;;;;;;;2089098;28;20535;-49
2024/03/30 01:02:11;;;;;;;1.92;1.30;;;;;;;;;;2085547;28;20027;-48
2024/03/30 01:03:12;;;;;;;2.78;1.45;;;;;;;;;;2088264;28;20104;-50
2024/03/30 01:04:14;;;;;;;2.72;1.55;;;;;;;;;;2088593;28;20029;-48
2024/03/30 01:05:19;;;;;;;1.80;1.35;;;;;;;;;;2088843;28;20075;-49
2024/03/30 01:06:21;;;;;;;2.15;1.35;;;;;;;;;;2089061;28;20033;-49
2024/03/30 01:07:22;;;;;;;1.95;1.15;;;;;;;;;;2088708;28;20024;-49
2024/03/30 01:08:23;;;;;;;2.55;1.23;;;;;;;;;;2088958;28;20009;-49
2024/03/30 01:09:25;;;;;;;3.17;1.08;;;;;;;;;;2088928;28;20033;-50
2024/03/30 01:10:26;;;;;;;1.77;1.23;;;;;;;;;;2088566;28;20028;-49
2024/03/30 01:11:28;;;;;;;3.22;1.30;;;;;;;;;;2089584;28;20025;-50
2024/03/30 01:12:29;;;;;;;2.38;1.40;;;;;;;;;;2087305;28;20021;-49
2024/03/30 01:13:31;;;;;;;1.75;1.00;;;;;;;;;;2088623;28;20053;-50
2024/03/30 01:14:35;;;;;;;2.90;1.38;;;;;;;;;;2088602;28;20114;-49
2024/03/30 01:15:37;;;;;;;1.67;1.10;;;;;;;;;;2082982;28;20049;-49
2024/03/30 01:16:38;;;;;;;2.90;1.13;;;;;;;;;;2088751;28;20063;-55
2024/03/30 01:17:40;;;;;;;2.35;1.20;;;;;;;;;;2088958;28;20037;-48
2024/03/30 01:18:42;;;;;;;1.77;1.00;;;;;;;;;;2089481;28;20043;-48
2024/03/30 01:19:44;;;;;;;2.13;1.15;;;;;;;;;;2089403;28;20502;-48
2024/03/30 01:20:46;;;;;;;1.55;1.08;;;;;;;;;;2090491;28;20025;-48
2024/03/30 01:21:47;;;;;;;2.13;0.88;;;;;;;;;;2089669;28;20022;-49
2024/03/30 01:22:48;;;;;;;1.88;1.13;;;;;;;;;;2081982;28;20024;-48
2024/03/30 01:23:51;;;;;;;2.75;0.90;;;;;;;;;;2089694;28;20471;-49
2024/03/30 01:24:52;;;;;;;2.17;1.20;;;;;;;;;;2087627;28;20072;-49
2024/03/30 01:25:54;;;;;;;1.65;0.98;;;;;;;;;;2089848;28;20029;-49
2024/03/30 01:26:57;;;;;;;2.05;1.08;;;;;;;;;;2088269;28;20020;-48
2024/03/30 01:27:59;;;;;;;2.13;1.25;;;;;;;;;;2089820;28;20021;-48
2024/03/30 01:29:03;;;;;;;2.13;1.05;;;;;;;;;;2087831;28;20029;-48
2024/03/30 01:30:06;;;;;;;3.05;1.10;;;;;;;;;;2090287;28;20104;-51
2024/03/30 01:31:07;;;;;;;3.03;1.10;;;;;;;;;;2089593;28;20033;-48
2024/03/30 01:32:10;;;;;;;1.77;1.00;;;;;;;;;;2089608;28;20055;-48
2024/03/30 01:33:12;;;;;;;1.90;1.25;;;;;;;;;;2088401;28;20114;-49
2024/03/30 01:34:13;;;;;;;1.20;0.98;;;;;;;;;;2089676;28;20095;-49
2024/03/30 01:35:14;;;;;;;2.95;1.13;;;;;;;;;;2089435;28;20017;-48
2024/03/30 01:36:16;;;;;;;1.83;1.20;;;;;;;;;;2090383;28;20037;-50
2024/03/30 01:37:18;;;;;;;2.25;1.05;;;;;;;;;;2087264;28;20133;-49
2024/03/30 01:38:20;;;;;;;2.67;1.08;;;;;;;;;;2090458;28;20049;-49
2024/03/30 01:39:22;;;;;;;2.50;1.20;;;;;;;;;;2090591;28;20021;-48
2024/03/30 01:40:23;;;;;;;3.80;1.15;;;;;;;;;;2088230;28;20472;-49
2024/03/30 01:41:24;;;;;;;2.83;1.10;;;;;;;;;;2082092;28;20460;-49
2024/03/30 01:42:27;;;;;;;2.63;0.90;;;;;;;;;;2088107;28;20389;-50
2024/03/30 01:43:28;;;;;;;2.20;1.15;;;;;;;;;;2089454;28;20028;-50
2024/03/30 01:44:30;;;;;;;2.17;1.00;;;;;;;;;;2089722;28;20029;-49
2024/03/30 01:45:34;;;;;;;2.42;1.10;;;;;;;;;;2089852;28;20029;-49
2024/03/30 01:46:35;;;;;;;2.35;1.02;;;;;;;;;;2090249;28;20047;-50
2024/03/30 01:47:37;;;;;;;2.42;1.38;;;;;;;;;;2090334;28;20075;-49
2024/03/30 01:48:39;;;;;;;2.13;1.33;;;;;;;;;;2089625;28;20408;-50
2024/03/30 01:49:40;;;;;;;2.72;1.00;;;;;;;;;;2080930;28;20025;-49
2024/03/30 01:50:43;;;;;;;2.15;1.08;;;;;;;;;;2089509;28;20090;-49
2024/03/30 01:51:45;;;;;;;2.35;1.20;;;;;;;;;;2090461;28;20025;-51
2024/03/30 01:52:47;;;;;;;2.83;1.13;;;;;;;;;;2089378;28;20587;-50
2024/03/30 01:53:48;;;;;;;3.10;1.40;;;;;;;;;;2089737;28;20357;-50
2024/03/30 01:54:50;;;;;;;3.47;1.63;;;;;;;;;;2089895;28;20021;-49
2024/03/30 01:55:52;;;;;;;4.10;1.30;;;;;;;;;;2089967;28;20013;-49
2024/03/30 01:56:54;;;;;;;2.40;1.30;;;;;;;;;;2090470;28;20029;-48
2024/03/30 01:57:57;;;;;;;2.60;1.27;;;;;;;;;;2090323;28;20028;-50
2024/03/30 01:59:00;;;;;;;1.60;1.20;;;;;;;;;;2090202;28;20101;-49
2024/03/30 02:00:01;;;;;;;1.50;1.00;;;;;;;;;;2090177;28;20025;-50
2024/03/30 02:01:03;;;;;;;1.70;1.08;;;;;;;;;;2090080;28;20312;-49
2024/03/30 02:02:04;;;;;;;1.20;0.77;;;;;;;;;;2096690;28;20029;-49
2024/03/30 02:03:06;;;;;;;2.00;1.17;;;;;;;;;;2087041;28;20108;-48
2024/03/30 02:04:08;;;;;;;3.17;1.48;;;;;;;;;;2089422;28;20017;-50
2024/03/30 02:05:09;;;;;;;2.58;1.40;;;;;;;;;;2088999;28;20017;-50
2024/03/30 02:06:13;;;;;;;4.30;1.20;;;;;;;;;;2089094;28;20024;-49
2024/03/30 02:07:14;;;;;;;1.73;1.00;;;;;;;;;;2089801;28;20040;-49
2024/03/30 02:08:16;;;;;;;1.75;0.90;;;;;;;;;;2090028;28;20139;-50
2024/03/30 02:09:18;;;;;;;2.67;1.13;;;;;;;;;;2083190;28;20029;-49
2024/03/30 02:10:19;;;;;;;1.10;0.85;;;;;;;;;;2088481;28;21507;-50
2024/03/30 02:11:21;;;;;;;1.13;0.82;;;;;;;;;;2089478;28;20047;-50
2024/03/30 02:12:22;;;;;;;2.28;1.30;;;;;;;;;;2089600;28;20438;-49
2024/03/30 02:13:25;;;;;;;2.53;1.08;;;;;;;;;;2089289;28;20044;-49
2024/03/30 02:14:26;;;;;;;1.55;1.10;;;;;;;;;;2090033;28;20028;-48
2024/03/30 02:15:27;;;;;;;2.17;1.02;;;;;;;;;;2089268;28;20009;-48
2024/03/30 02:16:32;;;;;;;2.47;1.05;;;;;;;;;;2089163;28;20036;-49
2024/03/30 02:17:33;;;;;;;3.40;1.17;;;;;;;;;;2082060;28;20020;-48
2024/03/30 02:18:34;;;;;;;1.80;0.95;;;;;;;;;;2089935;28;20017;-48
2024/03/30 02:19:44;;;;;;;2.65;1.20;;;;;;;;;;2089996;28;20029;-49
2024/03/30 02:20:45;;;;;;;2.03;0.82;;;;;;;;;;2088979;28;20021;-49
2024/03/30 02:21:46;;;;;;;1.50;0.93;;;;;;;;;;2088739;28;20071;-49
2024/03/30 02:22:53;;;;;;;2.78;0.90;;;;;;;;;;2089704;28;20029;-48
2024/03/30 02:23:54;;;;;;;3.55;1.05;;;;;;;;;;2089725;28;20032;-49
2024/03/30 02:24:55;;;;;;;3.17;0.90;;;;;;;;;;2089697;28;20013;-49
2024/03/30 02:25:58;;;;;;;1.55;0.77;;;;;;;;;;2089905;28;20029;-49
2024/03/30 02:26:59;;;;;;;2.10;1.10;;;;;;;;;;2089778;28;20078;-49
2024/03/30 02:28:00;;;;;;;1.90;0.90;;;;;;;;;;2089701;28;20637;-50
2024/03/30 02:29:05;;;;;;;1.75;1.00;;;;;;;;;;2089949;28;20488;-49
2024/03/30 02:30:09;;;;;;;1.75;0.75;;;;;;;;;;2089566;28;20462;-48
2024/03/30 02:31:11;;;;;;;1.67;0.90;;;;;;;;;;2089659;28;20116;-48
2024/03/30 02:32:15;;;;;;;2.35;0.73;;;;;;;;;;2089643;28;20471;-48
2024/03/30 02:33:16;;;;;;;2.97;0.80;;;;;;;;;;2089262;28;20521;-49
2024/03/30 02:34:18;;;;;;;3.17;0.90;;;;;;;;;;2088863;28;20052;-49
2024/03/30 02:35:19;;;;;;;2.70;1.17;;;;;;;;;;2088816;28;20519;-49
2024/03/30 02:36:21;;;;;;;1.40;0.75;;;;;;;;;;2089719;28;20199;-48
2024/03/30 02:37:22;;;;;;;3.60;1.27;;;;;;;;;;2089875;28;20029;-48
2024/03/30 02:38:24;;;;;;;2.58;0.88;;;;;;;;;;2089919;28;20415;-48
2024/03/30 02:39:26;;;;;;;1.38;0.57;;;;;;;;;;2089846;28;20047;-49
2024/03/30 02:40:27;;;;;;;1.90;0.75;;;;;;;;;;2089918;28;20040;-50
2024/03/30 02:41:29;;;;;;;3.20;0.70;;;;;;;;;;2089733;28;20028;-48
2024/03/30 02:42:30;;;;;;;2.58;0.75;;;;;;;;;;2089764;28;20014;-50
2024/03/30 02:43:31;;;;;;;2.42;0.57;;;;;;;;;;2089105;28;20021;-50
2024/03/30 02:44:34;;;;;;;1.85;0.77;;;;;;;;;;2089063;28;20072;-50
2024/03/30 02:45:35;;;;;;;4.82;1.35;;;;;;;;;;2081634;28;20087;-50
2024/03/30 02:46:36;;;;;;;3.53;1.00;;;;;;;;;;2088463;28;20043;-49
2024/03/30 02:47:38;;;;;;;3.13;1.10;;;;;;;;;;2089319;28;20125;-51
2024/03/30 02:48:39;;;;;;;2.20;0.80;;;;;;;;;;2088916;28;20392;-49
2024/03/30 02:49:40;;;;;;;2.30;0.70;;;;;;;;;;2083007;28;20033;-48
2024/03/30 02:50:42;;;;;;;2.20;0.80;;;;;;;;;;2089574;28;20029;-50
2024/03/30 02:51:43;;;;;;;1.70;0.68;;;;;;;;;;2087531;28;20025;-49
2024/03/30 02:52:44;;;;;;;1.65;0.80;;;;;;;;;;2085334;28;20025;-48
2024/03/30 02:53:46;;;;;;;3.85;0.75;;;;;;;;;;2089042;28;20031;-49
2024/03/30 02:54:48;;;;;;;0.93;0.70;;;;;;;;;;2089846;28;20025;-48
2024/03/30 02:55:49;;;;;;;1.38;0.70;;;;;;;;;;2086525;28;20068;-50
2024/03/30 02:56:50;;;;;;;2.17;0.65;;;;;;;;;;2081740;28;20063;-48
2024/03/30 02:57:52;;;;;;;1.35;0.65;;;;;;;;;;2083189;28;20024;-53
2024/03/30 02:58:55;;;;;;;3.30;0.95;;;;;;;;;;2088634;28;20410;-54
2024/03/30 02:59:56;;;;;;;1.33;0.52;;;;;;;;;;2088063;28;20136;-53
2024/03/30 03:00:58;;;;;;;2.55;0.60;;;;;;;;;;2089576;28;20025;-54
2024/03/30 03:01:59;;;;;;;2.92;0.60;;;;;;;;;;2089579;28;20056;-50
2024/03/30 03:03:01;;;;;;;2.22;0.73;;;;;;;;;;2089816;28;20020;-55
2024/03/30 03:04:03;;;;;;;1.00;0.70;;;;;;;;;;2089454;28;20651;-54
2024/03/30 03:05:04;;;;;;;2.03;0.70;;;;;;;;;;2086293;28;20036;-53
2024/03/30 03:06:06;;;;;;;2.47;0.60;;;;;;;;;;2089251;28;20037;-51
2024/03/30 03:07:08;;;;;;;2.78;0.57;;;;;;;;;;2086938;28;20032;-52
2024/03/30 03:08:09;;;;;;;0.82;0.40;;;;;;;;;;2089092;28;20029;-51
2024/03/30 03:09:10;;;;;;;1.38;0.70;;;;;;;;;;2088365;28;20056;-52
2024/03/30 03:10:12;;;;;;;2.25;0.55;;;;;;;;;;2089079;28;20048;-53
2024/03/30 03:11:13;;;;;;;0.98;0.30;;;;;;;;;;2089690;28;20155;-52
2024/03/30 03:12:14;;;;;;;2.13;0.70;;;;;;;;;;2089491;28;20048;-53
2024/03/30 03:13:17;;;;;;;1.27;0.63;;;;;;;;;;2089641;28;20029;-53
2024/03/30 03:14:18;;;;;;;0.73;0.43;;;;;;;;;;2089824;28;20017;-54
2024/03/30 03:15:19;;;;;;;1.55;0.30;;;;;;;;;;2091468;28;20043;-48
2024/03/30 03:16:21;;;;;;;0.98;0.40;;;;;;;;;;2089471;28;20029;-51
2024/03/30 03:17:22;;;;;;;2.63;0.70;;;;;;;;;;2089688;28;20094;-51
2024/03/30 03:18:23;;;;;;;2.58;0.50;;;;;;;;;;2089531;28;20380;-52
2024/03/30 03:19:25;;;;;;;1.45;0.60;;;;;;;;;;2089559;28;20021;-51
2024/03/30 03:20:26;;;;;;;0.85;0.43;;;;;;;;;;2089089;28;20024;-52
2024/03/30 03:21:27;;;;;;;2.25;0.60;;;;;;;;;;2089690;28;20502;-51
2024/03/30 03:22:29;;;;;;;0.90;0.60;;;;;;;;;;2088503;28;20031;-52
2024/03/30 03:23:31;;;;;;;1.55;0.57;;;;;;;;;;2089197;28;20074;-48
2024/03/30 03:24:32;;;;;;;1.60;0.50;;;;;;;;;;2081425;28;20527;-50
2024/03/30 03:25:33;;;;;;;2.38;1.10;;;;;;;;;;2088138;28;20017;-52
2024/03/30 03:26:35;;;;;;;1.27;0.77;;;;;;;;;;2087775;28;20037;-52
2024/03/30 03:27:36;;;;;;;1.90;0.88;;;;;;;;;;2088764;28;20021;-53
2024/03/30 03:28:39;;;;;;;1.30;0.80;;;;;;;;;;2089092;28;20056;-52
2024/03/30 03:29:40;;;;;;;1.60;0.55;;;;;;;;;;2089322;28;20387;-54
2024/03/30 03:30:41;;;;;;;2.28;0.80;;;;;;;;;;2081290;28;20037;-52
2024/03/30 03:31:43;;;;;;;0.40;0.40;;;;;;;;;;2084970;28;20446;-51
2024/03/30 03:32:47;;;;;;;2.35;0.50;;;;;;;;;;2089400;28;20052;-54
2024/03/30 03:33:49;;;;;;;1.90;0.65;;;;;;;;;;2089059;28;20029;-53
2024/03/30 03:34:51;;;;;;;2.60;0.55;;;;;;;;;;2088808;28;20013;-48
2024/03/30 03:35:53;;;;;;;1.42;0.60;;;;;;;;;;2088601;28;20025;-52
2024/03/30 03:36:54;;;;;;;0.82;0.50;;;;;;;;;;2089472;28;20051;-53
2024/03/30 03:37:56;;;;;;;1.90;0.50;;;;;;;;;;2085229;28;20039;-53
2024/03/30 03:38:57;;;;;;;2.03;0.60;;;;;;;;;;2089034;28;20021;-51
2024/03/30 03:39:59;;;;;;;1.85;0.50;;;;;;;;;;2089420;28;20012;-51
2024/03/30 03:41:01;;;;;;;1.30;0.60;;;;;;;;;;2089284;28;20476;-51
2024/03/30 03:42:03;;;;;;;0.93;0.40;;;;;;;;;;2088967;28;20467;-52
2024/03/30 03:43:04;;;;;;;1.67;0.55;;;;;;;;;;2089106;28;20490;-51
2024/03/30 03:44:05;;;;;;;2.38;0.45;;;;;;;;;;2089475;28;20431;-53
2024/03/30 03:45:07;;;;;;;1.42;0.30;;;;;;;;;;2089217;28;20405;-51
2024/03/30 03:46:08;;;;;;;2.45;0.70;;;;;;;;;;2089054;28;20025;-50
2024/03/30 03:47:11;;;;;;;0.45;0.32;;;;;;;;;;2089191;28;20024;-50
2024/03/30 03:48:12;;;;;;;1.58;0.30;;;;;;;;;;2089298;28;20029;-51
2024/03/30 03:49:13;;;;;;;0.77;0.40;;;;;;;;;;2089182;28;20126;-51
2024/03/30 03:50:15;;;;;;;1.08;0.40;;;;;;;;;;2089568;28;20059;-52
2024/03/30 03:51:16;;;;;;;1.17;0.50;;;;;;;;;;2084875;28;20010;-53
2024/03/30 03:52:17;;;;;;;1.20;0.60;;;;;;;;;;2087948;28;20112;-52
2024/03/30 03:53:19;;;;;;;1.17;0.40;;;;;;;;;;2087610;28;20024;-51
2024/03/30 03:54:20;;;;;;;0.55;0.32;;;;;;;;;;2088444;28;20405;-52
2024/03/30 03:55:21;;;;;;;2.92;0.68;;;;;;;;;;2082106;28;20025;-53
2024/03/30 03:56:23;;;;;;;0.60;0.40;;;;;;;;;;2089055;28;20032;-50
2024/03/30 03:57:24;;;;;;;2.13;0.60;;;;;;;;;;2089358;28;20021;-52
2024/03/30 03:58:25;;;;;;;1.85;0.63;;;;;;;;;;2089119;28;20080;-52
2024/03/30 03:59:27;;;;;;;2.42;0.60;;;;;;;;;;2089310;28;20407;-50
2024/03/30 04:00:28;;;;;;;1.65;0.30;;;;;;;;;;2089233;28;20033;-52
2024/03/30 04:01:29;;;;;;;1.23;0.55;;;;;;;;;;2089044;28;20028;-52
2024/03/30 04:02:31;;;;;;;0.73;0.50;;;;;;;;;;2089206;28;20029;-52
2024/03/30 04:03:33;;;;;;;0.50;0.28;;;;;;;;;;2088528;28;20028;-52
2024/03/30 04:04:34;;;;;;;1.23;0.50;;;;;;;;;;2088687;28;20013;-51
2024/03/30 04:05:36;;;;;;;2.58;0.60;;;;;;;;;;2088459;28;20029;-53
2024/03/30 04:06:37;;;;;;;0.88;0.45;;;;;;;;;;2088768;28;20140;-53
2024/03/30 04:07:38;;;;;;;1.50;0.52;;;;;;;;;;2088611;28;20020;-51
2024/03/30 04:08:40;;;;;;;1.08;0.50;;;;;;;;;;2088145;28;20090;-52
2024/03/30 04:09:41;;;;;;;1.45;0.50;;;;;;;;;;2089274;28;20055;-53
2024/03/30 04:10:42;;;;;;;1.20;0.40;;;;;;;;;;2089053;28;20016;-51
2024/03/30 04:11:44;;;;;;;1.42;0.50;;;;;;;;;;2088726;28;20041;-48
2024/03/30 04:12:45;;;;;;;1.63;0.50;;;;;;;;;;2088557;28;20029;-53
2024/03/30 04:13:46;;;;;;;1.20;0.40;;;;;;;;;;2089104;28;20376;-49
2024/03/30 04:14:47;;;;;;;1.55;0.50;;;;;;;;;;2089230;28;20403;-48
2024/03/30 04:15:49;;;;;;;1.75;0.55;;;;;;;;;;2088946;28;20116;-48
2024/03/30 04:16:50;;;;;;;1.10;0.47;;;;;;;;;;2088306;28;20396;-49
2024/03/30 04:17:52;;;;;;;0.68;0.40;;;;;;;;;;2088738;28;20025;-52
2024/03/30 04:18:53;;;;;;;0.88;0.20;;;;;;;;;;2089680;28;20108;-51
2024/03/30 04:19:55;;;;;;;2.42;0.60;;;;;;;;;;2088897;28;20025;-50
2024/03/30 04:21:00;;;;;;;2.22;0.63;;;;;;;;;;2089125;28;20021;-51
2024/03/30 04:22:02;;;;;;;1.95;0.52;;;;;;;;;;2088188;28;20568;-51
2024/03/30 04:23:04;;;;;;;0.60;0.40;;;;;;;;;;2080354;28;20064;-52
2024/03/30 04:24:05;;;;;;;1.20;0.40;;;;;;;;;;2089075;28;20029;-51
2024/03/30 04:25:07;;;;;;;0.98;0.55;;;;;;;;;;2088948;28;20491;-50
2024/03/30 04:26:10;;;;;;;0.98;0.40;;;;;;;;;;2089268;28;20095;-50
2024/03/30 04:27:11;;;;;;;0.93;0.50;;;;;;;;;;2088238;28;20082;-47
2024/03/30 04:28:12;;;;;;;0.60;0.40;;;;;;;;;;2086801;28;20029;-51
2024/03/30 04:29:14;;;;;;;1.05;0.70;;;;;;;;;;2089142;28;20035;-53
2024/03/30 04:30:17;;;;;;;1.63;0.52;;;;;;;;;;2086658;28;20025;-49
2024/03/30 04:31:18;;;;;;;0.32;0.25;;;;;;;;;;2081879;28;20029;-50
2024/03/30 04:32:20;;;;;;;1.38;0.55;;;;;;;;;;2087141;28;20032;-48
2024/03/30 04:33:21;;;;;;;2.53;0.30;;;;;;;;;;2082776;28;20029;-51
2024/03/30 04:34:23;;;;;;;1.27;0.40;;;;;;;;;;2085905;28;20025;-52
2024/03/30 04:35:24;;;;;;;1.40;0.32;;;;;;;;;;2088137;28;20044;-51
2024/03/30 04:36:26;;;;;;;1.50;0.50;;;;;;;;;;2086991;28;20028;-49
2024/03/30 04:37:27;;;;;;;1.70;0.50;;;;;;;;;;2088955;28;20486;-51
2024/03/30 04:38:29;;;;;;;0.80;0.47;;;;;;;;;;2088580;28;20024;-51
2024/03/30 04:39:30;;;;;;;0.95;0.40;;;;;;;;;;2082475;28;20132;-51
2024/03/30 04:40:31;;;;;;;0.55;0.35;;;;;;;;;;2088090;28;20487;-52
2024/03/30 04:41:33;;;;;;;0.88;0.50;;;;;;;;;;2088253;28;20025;-51
2024/03/30 04:42:34;;;;;;;1.15;0.50;;;;;;;;;;2088437;28;20514;-50
2024/03/30 04:43:36;;;;;;;0.60;0.32;;;;;;;;;;2086578;28;20499;-52
2024/03/30 04:44:37;;;;;;;1.63;0.40;;;;;;;;;;2088102;28;20472;-50
2024/03/30 04:45:39;;;;;;;1.65;0.30;;;;;;;;;;2087055;28;21313;-52
2024/03/30 04:46:40;;;;;;;0.60;0.40;;;;;;;;;;2088587;28;20045;-54
2024/03/30 04:47:41;;;;;;;2.03;0.55;;;;;;;;;;2088167;28;20021;-53
2024/03/30 04:48:45;;;;;;;0.68;0.32;;;;;;;;;;2090500;28;20017;-52
2024/03/30 04:49:46;;;;;;;0.63;0.43;;;;;;;;;;2089815;28;20029;-54
2024/03/30 04:50:47;;;;;;;1.85;0.47;;;;;;;;;;2088259;28;20029;-52
2024/03/30 04:51:48;;;;;;;0.57;0.30;;;;;;;;;;2088471;28;20021;-53
2024/03/30 04:52:50;;;;;;;0.43;0.30;;;;;;;;;;2088267;28;20168;-53
2024/03/30 04:53:51;;;;;;;0.65;0.32;;;;;;;;;;2089019;28;20017;-53
2024/03/30 04:54:52;;;;;;;1.15;0.43;;;;;;;;;;2089653;28;20021;-52
2024/03/30 04:55:54;;;;;;;1.27;0.50;;;;;;;;;;2089807;28;20056;-51
2024/03/30 04:56:56;;;;;;;1.02;0.40;;;;;;;;;;2089920;28;20033;-52
2024/03/30 04:57:57;;;;;;;0.73;0.30;;;;;;;;;;2090420;28;20128;-48
2024/03/30 04:58:58;;;;;;;1.52;0.30;;;;;;;;;;2090566;28;20033;-51
2024/03/30 04:59:59;;;;;;;0.57;0.30;;;;;;;;;;2090721;28;20404;-50
2024/03/30 05:01:03;;;;;;;1.40;0.52;;;;;;;;;;2090677;28;20013;-52
2024/03/30 05:02:04;;;;;;;1.42;0.60;;;;;;;;;;2088898;28;20013;-52
2024/03/30 05:03:05;;;;;;;0.98;0.40;;;;;;;;;;2090813;28;20086;-52
2024/03/30 05:04:08;;;;;;;0.63;0.50;;;;;;;;;;2089782;28;20579;-47
2024/03/30 05:05:09;;;;;;;1.40;0.35;;;;;;;;;;2090694;28;20825;-48
2024/03/30 05:06:10;;;;;;;1.60;0.57;;;;;;;;;;2090460;28;20657;-48
2024/03/30 05:07:12;;;;;;;1.02;0.52;;;;;;;;;;2090035;28;20029;-48
2024/03/30 05:08:13;;;;;;;0.93;0.28;;;;;;;;;;2090524;28;20053;-48
2024/03/30 05:09:15;;;;;;;1.60;0.60;;;;;;;;;;2090569;28;20029;-53
2024/03/30 05:10:16;;;;;;;0.50;0.30;;;;;;;;;;2090550;28;20377;-49
2024/03/30 05:11:17;;;;;;;2.28;0.60;;;;;;;;;;2090276;28;20033;-49
2024/03/30 05:12:19;;;;;;;1.85;0.57;;;;;;;;;;2090659;28;20119;-49
2024/03/30 05:13:20;;;;;;;1.15;0.60;;;;;;;;;;2090581;28;20027;-48
2024/03/30 05:14:22;;;;;;;0.80;0.50;;;;;;;;;;2090600;28;20031;-50
2024/03/30 05:15:23;;;;;;;0.57;0.40;;;;;;;;;;2090522;28;20027;-49
2024/03/30 05:16:24;;;;;;;0.52;0.40;;;;;;;;;;2090629;28;20013;-48
2024/03/30 05:17:26;;;;;;;2.45;0.70;;;;;;;;;;2089186;28;20091;-49
2024/03/30 05:18:27;;;;;;;2.45;0.50;;;;;;;;;;2089470;28;20009;-49
2024/03/30 05:21:01;;;;;;;1.95;0.60;;;;;;;;;;2090150;28;20009;-48
2024/03/30 05:22:03;;;;;;;2.00;0.60;;;;;;;;;;2086832;28;20025;-51
2024/03/30 05:23:05;;;;;;;0.57;0.43;;;;;;;;;;2090586;28;20083;-48
2024/03/30 05:24:06;;;;;;;1.10;0.63;;;;;;;;;;2090430;28;20476;-47
2024/03/30 05:25:07;;;;;;;5.53;0.98;;;;;;;;;;2090529;28;20075;-49
2024/03/30 05:26:09;;;;;;;0.63;0.35;;;;;;;;;;2089921;28;20033;-48
2024/03/30 05:27:10;;;;;;;1.02;0.40;;;;;;;;;;2090285;28;20420;-49
2024/03/30 05:28:12;;;;;;;1.88;0.52;;;;;;;;;;2091891;28;20135;-48
2024/03/30 05:29:13;;;;;;;1.35;0.43;;;;;;;;;;2089298;28;20036;-49
2024/03/30 05:30:14;;;;;;;1.77;0.63;;;;;;;;;;2087543;28;20542;-49
2024/03/30 05:31:22;;;;;;;1.95;0.50;;;;;;;;;;2090143;28;20048;-48
2024/03/30 05:32:24;;;;;;;0.80;0.40;;;;;;;;;;2088615;28;20104;-49
2024/03/30 05:33:26;;;;;;;4.40;0.60;;;;;;;;;;2091159;28;20507;-49
2024/03/30 05:34:27;;;;;;;0.75;0.45;;;;;;;;;;2087823;28;20159;-49
2024/03/30 05:35:29;;;;;;;3.97;0.60;;;;;;;;;;2087831;28;20088;-48
2024/03/30 05:36:30;;;;;;;3.03;0.40;;;;;;;;;;2087543;28;20059;-50
2024/03/30 05:37:31;;;;;;;1.92;0.50;;;;;;;;;;2090475;28;20029;-48
2024/03/30 05:38:33;;;;;;;0.57;0.40;;;;;;;;;;2085842;28;20103;-48
2024/03/30 05:39:34;;;;;;;0.68;0.40;;;;;;;;;;2089308;28;20028;-49
2024/03/30 05:40:36;;;;;;;2.72;0.60;;;;;;;;;;2084838;28;20018;-49
2024/03/30 05:41:38;;;;;;;2.13;0.55;;;;;;;;;;2088763;28;20044;-49
2024/03/30 05:42:39;;;;;;;3.90;0.65;;;;;;;;;;2080642;28;20049;-50
2024/03/30 05:43:40;;;;;;;0.52;0.30;;;;;;;;;;2081484;28;20033;-49
2024/03/30 05:44:42;;;;;;;1.02;0.50;;;;;;;;;;2083472;28;20053;-48
2024/03/30 05:45:46;;;;;;;1.17;0.50;;;;;;;;;;2089776;28;20111;-49
2024/03/30 05:46:48;;;;;;;1.70;0.45;;;;;;;;;;2088139;28;20053;-49
2024/03/30 05:47:49;;;;;;;0.75;0.40;;;;;;;;;;2081213;28;20484;-49
2024/03/30 05:48:50;;;;;;;2.17;0.47;;;;;;;;;;2081568;28;20417;-50
2024/03/30 05:49:53;;;;;;;1.38;0.40;;;;;;;;;;2089416;28;20037;-49
2024/03/30 05:50:54;;;;;;;2.42;0.75;;;;;;;;;;2089777;28;20045;-49
2024/03/30 05:51:56;;;;;;;4.65;0.60;;;;;;;;;;2090237;28;20108;-49
2024/03/30 05:52:57;;;;;;;1.05;0.50;;;;;;;;;;2086979;28;20022;-49
2024/03/30 05:53:58;;;;;;;2.70;0.63;;;;;;;;;;2082039;28;20024;-49
2024/03/30 05:55:00;;;;;;;1.40;0.43;;;;;;;;;;2090051;28;20039;-49
2024/03/30 05:56:01;;;;;;;3.15;0.50;;;;;;;;;;2089955;28;20958;-49
2024/03/30 05:57:03;;;;;;;0.60;0.40;;;;;;;;;;2090309;28;20503;-48
2024/03/30 05:58:09;;;;;;;2.58;0.43;;;;;;;;;;2090008;28;20130;-48
2024/03/30 05:59:10;;;;;;;1.70;0.80;;;;;;;;;;2090256;28;20017;-48
2024/03/30 06:00:12;;;;;;;1.60;0.60;;;;;;;;;;2090272;28;20039;-49
2024/03/30 06:01:13;;;;;;;1.45;0.40;;;;;;;;;;2089129;28;20071;-49
2024/03/30 06:02:15;;;;;;;1.00;0.50;;;;;;;;;;2089409;28;20051;-48
2024/03/30 06:03:16;;;;;;;0.77;0.40;;;;;;;;;;2089098;28;20349;-52
2024/03/30 06:04:18;;;;;;;0.93;0.50;;;;;;;;;;2089299;28;20029;-53
2024/03/30 06:05:19;;;;;;;1.20;0.65;;;;;;;;;;2089382;28;20029;-51
2024/03/30 06:06:22;;;;;;;1.65;0.47;;;;;;;;;;2087887;28;20132;-54
2024/03/30 06:07:23;;;;;;;1.15;0.50;;;;;;;;;;2090087;28;20029;-51
2024/03/30 06:08:24;;;;;;;1.20;0.52;;;;;;;;;;2089573;28;20025;-51
2024/03/30 06:09:26;;;;;;;1.20;0.40;;;;;;;;;;2089346;28;20024;-52
2024/03/30 06:10:27;;;;;;;1.15;0.60;;;;;;;;;;2089960;28;20036;-52
2024/03/30 06:11:28;;;;;;;0.60;0.38;;;;;;;;;;2090336;28;20504;-54